메인 페이지
METAR-TAF:

METAR-TAF

공항 :

Ponca City, 오클라호마, 미국

위도: 36-43-50N, 경도: 097-05-59W, 고도: 307m

현재 날씨관측

예보는 27분 전, 16:23시(UTC)에 발표되었습니다.
7kt
온도 8°C
습도 93%
기압 1009 hPa
시정: 4.0km
고도 400ft 상공 흐림
박무

METAR: KPNC 191623Z AUTO 19007KT 2 1/2SM BR OVC004 08/07 A2981 RMK AO2 T00830067

시각: 10:50 (16:50 UTC)

예보

예보는 1 시간 40분 전, 15:10시(UTC)에 발표되었습니다.
예보 대상 시간: 19일 15시부터 20일 12시까지 (UTC)
7kt
시정: 3.2km
고도 300ft 상공 흐림
박무
19일 1700시부터 (UTC)
9kt
시정: 6.4km
고도 1000ft 상공 구름 많음
박무
19일 1900시부터 (UTC)
8kt
시정: 10km
고도 3500ft 상공 구름 많음
19일 2100시부터 (UTC)
북북서11kt
시정: 10km
고도 3000ft 상공 구름 많음

TAF: KPNC 191510Z 1915/2012 17007KT 2SM BR OVC003 FM191700 18009KT 4SM BR BKN010 FM191900 26008KT P6SM BKN035 FM192100 34011KT P6SM BKN030

4,000개 이상의 공항 관측 자료 및 예보 (METAR 및 TAF 보고).

지도상에서 검색 가능한 기상관측소가 노란 점과 빨간 점으로 표시되어 있습니다.

기상관측소 명을 보려면 표시 위로 마우스를 이동하세요.

날씨 관측과 예보를 보려면 클릭하세요.

지도 변경 : 확대하려면 엑스 표시가 있는 녹색 버튼, 축소하려면 빼기 표시가 있는 녹색 버튼, 다음 페이지의 지도를 보려면 녹색 화살표를 클릭하세요.


METAR-TAF: